sensor_id;sensor_type;location;lat;lon;timestamp;temperature;humidity
17918;DHT22;9084;50.956;3.106;2023-06-10T00:00:53;21.40;94.60
17918;DHT22;9084;50.956;3.106;2023-06-10T00:03:19;21.40;94.70
17918;DHT22;9084;50.956;3.106;2023-06-10T00:05:47;21.40;94.10
17918;DHT22;9084;50.956;3.106;2023-06-10T00:08:12;21.40;94.40
17918;DHT22;9084;50.956;3.106;2023-06-10T00:10:43;21.40;94.40
17918;DHT22;9084;50.956;3.106;2023-06-10T00:13:09;21.40;94.30
17918;DHT22;9084;50.956;3.106;2023-06-10T00:15:34;21.50;94.10
17918;DHT22;9084;50.956;3.106;2023-06-10T00:18:01;21.40;94.40
17918;DHT22;9084;50.956;3.106;2023-06-10T00:20:29;21.50;94.20
17918;DHT22;9084;50.956;3.106;2023-06-10T00:22:55;21.40;95.10
17918;DHT22;9084;50.956;3.106;2023-06-10T00:25:25;21.40;94.50
17918;DHT22;9084;50.956;3.106;2023-06-10T00:27:51;21.40;94.80
17918;DHT22;9084;50.956;3.106;2023-06-10T00:30:19;21.40;94.60
17918;DHT22;9084;50.956;3.106;2023-06-10T00:32:47;21.30;94.90
17918;DHT22;9084;50.956;3.106;2023-06-10T00:35:15;21.30;95.30
17918;DHT22;9084;50.956;3.106;2023-06-10T00:37:41;21.30;95.70
17918;DHT22;9084;50.956;3.106;2023-06-10T00:40:07;21.30;95.90
17918;DHT22;9084;50.956;3.106;2023-06-10T00:42:34;21.30;95.90
17918;DHT22;9084;50.956;3.106;2023-06-10T00:45:00;21.20;96.00
17918;DHT22;9084;50.956;3.106;2023-06-10T00:47:27;21.20;95.80
17918;DHT22;9084;50.956;3.106;2023-06-10T00:49:53;21.20;95.90
17918;DHT22;9084;50.956;3.106;2023-06-10T00:52:22;21.20;96.10
17918;DHT22;9084;50.956;3.106;2023-06-10T00:54:54;21.20;96.20
17918;DHT22;9084;50.956;3.106;2023-06-10T00:57:20;21.20;96.40
17918;DHT22;9084;50.956;3.106;2023-06-10T00:59:49;21.10;96.60
17918;DHT22;9084;50.956;3.106;2023-06-10T01:02:17;21.10;96.60
17918;DHT22;9084;50.956;3.106;2023-06-10T01:04:43;21.20;96.40
17918;DHT22;9084;50.956;3.106;2023-06-10T01:10:01;21.10;96.30
17918;DHT22;9084;50.956;3.106;2023-06-10T01:12:45;21.10;96.90
17918;DHT22;9084;50.956;3.106;2023-06-10T01:15:15;21.10;96.70
17918;DHT22;9084;50.956;3.106;2023-06-10T01:18:04;21.20;96.40
17918;DHT22;9084;50.956;3.106;2023-06-10T01:20:31;21.10;96.80
17918;DHT22;9084;50.956;3.106;2023-06-10T01:23:01;21.10;97.40
17918;DHT22;9084;50.956;3.106;2023-06-10T01:25:29;21.10;97.00
17918;DHT22;9084;50.956;3.106;2023-06-10T01:30:52;21.00;97.90
17918;DHT22;9084;50.956;3.106;2023-06-10T01:33:29;20.90;98.30
17918;DHT22;9084;50.956;3.106;2023-06-10T01:36:00;20.90;98.50
17918;DHT22;9084;50.956;3.106;2023-06-10T01:38:27;20.90;98.40
17918;DHT22;9084;50.956;3.106;2023-06-10T01:40:56;20.90;98.30
17918;DHT22;9084;50.956;3.106;2023-06-10T01:43:27;20.90;98.40
17918;DHT22;9084;50.956;3.106;2023-06-10T01:45:54;20.90;98.50
17918;DHT22;9084;50.956;3.106;2023-06-10T01:48:20;20.80;99.00
17918;DHT22;9084;50.956;3.106;2023-06-10T01:50:46;20.80;99.00
17918;DHT22;9084;50.956;3.106;2023-06-10T01:53:11;20.80;99.60
17918;DHT22;9084;50.956;3.106;2023-06-10T01:55:37;20.80;99.10
17918;DHT22;9084;50.956;3.106;2023-06-10T01:58:07;20.80;99.20
17918;DHT22;9084;50.956;3.106;2023-06-10T02:00:32;20.70;99.60
17918;DHT22;9084;50.956;3.106;2023-06-10T02:02:58;20.70;99.90
17918;DHT22;9084;50.956;3.106;2023-06-10T02:05:24;20.70;99.90
17918;DHT22;9084;50.956;3.106;2023-06-10T02:07:50;20.60;99.90
17918;DHT22;9084;50.956;3.106;2023-06-10T02:10:16;20.60;99.90
17918;DHT22;9084;50.956;3.106;2023-06-10T02:12:44;20.60;99.90
17918;DHT22;9084;50.956;3.106;2023-06-10T02:15:12;20.60;99.90
17918;DHT22;9084;50.956;3.106;2023-06-10T02:17:40;20.50;99.90
17918;DHT22;9084;50.956;3.106;2023-06-10T02:20:06;20.50;99.90
17918;DHT22;9084;50.956;3.106;2023-06-10T02:22:35;20.50;99.90
17918;DHT22;9084;50.956;3.106;2023-06-10T02:25:00;20.50;99.90
17918;DHT22;9084;50.956;3.106;2023-06-10T02:27:26;20.40;99.90
17918;DHT22;9084;50.956;3.106;2023-06-10T02:29:54;20.40;99.90
17918;DHT22;9084;50.956;3.106;2023-06-10T02:32:19;20.40;99.90
17918;DHT22;9084;50.956;3.106;2023-06-10T02:34:45;20.40;99.90
17918;DHT22;9084;50.956;3.106;2023-06-10T02:37:11;20.40;99.90
17918;DHT22;9084;50.956;3.106;2023-06-10T02:39:37;20.40;99.90
17918;DHT22;9084;50.956;3.106;2023-06-10T02:42:05;20.40;99.90
17918;DHT22;9084;50.956;3.106;2023-06-10T02:44:31;20.30;99.90
17918;DHT22;9084;50.956;3.106;2023-06-10T02:46:56;20.30;99.90
17918;DHT22;9084;50.956;3.106;2023-06-10T02:49:22;20.30;99.90
17918;DHT22;9084;50.956;3.106;2023-06-10T02:51:53;20.30;99.90
17918;DHT22;9084;50.956;3.106;2023-06-10T02:54:20;20.30;99.90
17918;DHT22;9084;50.956;3.106;2023-06-10T02:56:46;20.20;99.90
17918;DHT22;9084;50.956;3.106;2023-06-10T02:59:13;20.20;99.90
17918;DHT22;9084;50.956;3.106;2023-06-10T03:01:39;20.20;99.90
17918;DHT22;9084;50.956;3.106;2023-06-10T03:04:05;20.20;99.90
17918;DHT22;9084;50.956;3.106;2023-06-10T03:06:31;20.20;99.90
17918;DHT22;9084;50.956;3.106;2023-06-10T03:09:00;20.20;99.90
17918;DHT22;9084;50.956;3.106;2023-06-10T03:11:25;20.20;99.90
17918;DHT22;9084;50.956;3.106;2023-06-10T03:13:51;20.10;99.90
17918;DHT22;9084;50.956;3.106;2023-06-10T03:16:19;20.20;99.90
17918;DHT22;9084;50.956;3.106;2023-06-10T03:18:45;20.10;99.90
17918;DHT22;9084;50.956;3.106;2023-06-10T03:21:10;20.10;99.90
17918;DHT22;9084;50.956;3.106;2023-06-10T03:23:36;20.10;99.90
17918;DHT22;9084;50.956;3.106;2023-06-10T03:26:05;20.10;99.90
17918;DHT22;9084;50.956;3.106;2023-06-10T03:28:33;20.20;99.90
17918;DHT22;9084;50.956;3.106;2023-06-10T03:30:59;20.10;99.90
17918;DHT22;9084;50.956;3.106;2023-06-10T03:33:24;20.10;99.90
17918;DHT22;9084;50.956;3.106;2023-06-10T03:35:51;20.00;99.90
17918;DHT22;9084;50.956;3.106;2023-06-10T03:38:17;20.00;99.90
17918;DHT22;9084;50.956;3.106;2023-06-10T03:40:42;20.00;99.90
17918;DHT22;9084;50.956;3.106;2023-06-10T03:43:08;19.90;99.90
17918;DHT22;9084;50.956;3.106;2023-06-10T03:45:34;20.00;99.90
17918;DHT22;9084;50.956;3.106;2023-06-10T03:48:02;19.90;99.90
17918;DHT22;9084;50.956;3.106;2023-06-10T03:50:29;19.90;99.90
17918;DHT22;9084;50.956;3.106;2023-06-10T03:52:57;19.90;99.90
17918;DHT22;9084;50.956;3.106;2023-06-10T03:55:22;19.90;99.90
17918;DHT22;9084;50.956;3.106;2023-06-10T03:57:49;19.90;99.90
17918;DHT22;9084;50.956;3.106;2023-06-10T04:00:18;19.80;99.90
17918;DHT22;9084;50.956;3.106;2023-06-10T04:02:47;19.80;99.90
17918;DHT22;9084;50.956;3.106;2023-06-10T04:05:16;19.80;99.90
17918;DHT22;9084;50.956;3.106;2023-06-10T04:07:44;19.80;99.90
17918;DHT22;9084;50.956;3.106;2023-06-10T04:10:15;19.90;99.90
17918;DHT22;9084;50.956;3.106;2023-06-10T04:12:43;19.90;99.90
17918;DHT22;9084;50.956;3.106;2023-06-10T04:15:11;19.90;99.90
17918;DHT22;9084;50.956;3.106;2023-06-10T04:17:38;19.90;99.90
17918;DHT22;9084;50.956;3.106;2023-06-10T04:20:04;19.90;99.90
17918;DHT22;9084;50.956;3.106;2023-06-10T04:22:33;19.90;99.90
17918;DHT22;9084;50.956;3.106;2023-06-10T04:25:01;19.90;99.90
17918;DHT22;9084;50.956;3.106;2023-06-10T04:27:26;19.90;99.90
17918;DHT22;9084;50.956;3.106;2023-06-10T04:29:52;19.90;99.90
17918;DHT22;9084;50.956;3.106;2023-06-10T04:32:18;20.00;99.90
17918;DHT22;9084;50.956;3.106;2023-06-10T04:34:43;20.00;99.90
17918;DHT22;9084;50.956;3.106;2023-06-10T04:37:11;20.00;99.90
17918;DHT22;9084;50.956;3.106;2023-06-10T04:39:42;20.00;99.90
17918;DHT22;9084;50.956;3.106;2023-06-10T04:42:10;20.00;99.90
17918;DHT22;9084;50.956;3.106;2023-06-10T04:44:38;20.00;99.90
17918;DHT22;9084;50.956;3.106;2023-06-10T04:47:04;20.10;99.90
17918;DHT22;9084;50.956;3.106;2023-06-10T04:49:30;20.10;99.90
17918;DHT22;9084;50.956;3.106;2023-06-10T04:51:56;20.10;99.90
17918;DHT22;9084;50.956;3.106;2023-06-10T04:54:22;20.20;99.90
17918;DHT22;9084;50.956;3.106;2023-06-10T04:56:50;20.20;99.90
17918;DHT22;9084;50.956;3.106;2023-06-10T04:59:16;20.20;99.90
17918;DHT22;9084;50.956;3.106;2023-06-10T05:01:41;20.20;99.90
17918;DHT22;9084;50.956;3.106;2023-06-10T05:04:07;20.30;99.90
17918;DHT22;9084;50.956;3.106;2023-06-10T05:06:35;20.30;99.90
17918;DHT22;9084;50.956;3.106;2023-06-10T05:09:01;20.40;99.90
17918;DHT22;9084;50.956;3.106;2023-06-10T05:11:27;20.40;99.90
17918;DHT22;9084;50.956;3.106;2023-06-10T05:13:55;20.40;99.90
17918;DHT22;9084;50.956;3.106;2023-06-10T05:16:26;20.50;99.90
17918;DHT22;9084;50.956;3.106;2023-06-10T05:18:53;20.50;99.90
17918;DHT22;9084;50.956;3.106;2023-06-10T05:21:19;20.50;99.90
17918;DHT22;9084;50.956;3.106;2023-06-10T05:23:47;20.60;99.90
17918;DHT22;9084;50.956;3.106;2023-06-10T05:26:13;20.60;99.90
17918;DHT22;9084;50.956;3.106;2023-06-10T05:28:42;20.60;99.90
17918;DHT22;9084;50.956;3.106;2023-06-10T05:31:10;20.70;99.90
17918;DHT22;9084;50.956;3.106;2023-06-10T05:33:39;20.80;99.90
17918;DHT22;9084;50.956;3.106;2023-06-10T05:36:05;20.80;99.90
17918;DHT22;9084;50.956;3.106;2023-06-10T05:38:30;20.80;99.90
17918;DHT22;9084;50.956;3.106;2023-06-10T05:40:58;20.90;99.90
17918;DHT22;9084;50.956;3.106;2023-06-10T05:43:26;21.00;99.90
17918;DHT22;9084;50.956;3.106;2023-06-10T05:45:52;21.00;99.90
17918;DHT22;9084;50.956;3.106;2023-06-10T05:48:18;21.10;99.90
17918;DHT22;9084;50.956;3.106;2023-06-10T05:50:45;21.10;99.90
17918;DHT22;9084;50.956;3.106;2023-06-10T05:53:17;21.20;99.90
17918;DHT22;9084;50.956;3.106;2023-06-10T05:55:43;21.20;99.90
17918;DHT22;9084;50.956;3.106;2023-06-10T05:58:13;21.30;99.90
17918;DHT22;9084;50.956;3.106;2023-06-10T06:00:39;21.30;99.90
17918;DHT22;9084;50.956;3.106;2023-06-10T06:03:10;21.40;99.40
17918;DHT22;9084;50.956;3.106;2023-06-10T06:05:38;21.50;99.10
17918;DHT22;9084;50.956;3.106;2023-06-10T06:08:05;21.60;98.30
17918;DHT22;9084;50.956;3.106;2023-06-10T06:10:33;21.60;98.00
17918;DHT22;9084;50.956;3.106;2023-06-10T06:13:00;21.70;97.90
17918;DHT22;9084;50.956;3.106;2023-06-10T06:15:25;21.70;97.30
17918;DHT22;9084;50.956;3.106;2023-06-10T06:17:51;21.80;98.10
17918;DHT22;9084;50.956;3.106;2023-06-10T06:20:23;21.80;98.30
17918;DHT22;9084;50.956;3.106;2023-06-10T06:22:51;21.90;97.80
17918;DHT22;9084;50.956;3.106;2023-06-10T06:25:21;22.00;97.40
17918;DHT22;9084;50.956;3.106;2023-06-10T06:27:49;22.00;96.70
17918;DHT22;9084;50.956;3.106;2023-06-10T06:30:17;22.10;96.90
17918;DHT22;9084;50.956;3.106;2023-06-10T06:32:45;22.20;96.10
17918;DHT22;9084;50.956;3.106;2023-06-10T06:35:15;22.20;94.70
17918;DHT22;9084;50.956;3.106;2023-06-10T06:37:41;22.30;94.20
17918;DHT22;9084;50.956;3.106;2023-06-10T06:40:07;22.40;94.40
17918;DHT22;9084;50.956;3.106;2023-06-10T06:42:33;22.40;93.20
17918;DHT22;9084;50.956;3.106;2023-06-10T06:44:58;22.50;94.20
17918;DHT22;9084;50.956;3.106;2023-06-10T06:47:26;22.60;94.30
17918;DHT22;9084;50.956;3.106;2023-06-10T06:49:52;22.60;92.80
17918;DHT22;9084;50.956;3.106;2023-06-10T06:52:20;22.70;92.80
17918;DHT22;9084;50.956;3.106;2023-06-10T06:54:45;22.80;92.60
17918;DHT22;9084;50.956;3.106;2023-06-10T06:57:13;22.80;92.50
17918;DHT22;9084;50.956;3.106;2023-06-10T06:59:39;22.90;92.00
17918;DHT22;9084;50.956;3.106;2023-06-10T07:02:05;23.00;92.00
17918;DHT22;9084;50.956;3.106;2023-06-10T07:04:31;23.10;91.40
17918;DHT22;9084;50.956;3.106;2023-06-10T07:06:57;23.10;91.70
17918;DHT22;9084;50.956;3.106;2023-06-10T07:09:22;23.20;91.20
17918;DHT22;9084;50.956;3.106;2023-06-10T07:11:53;23.30;91.00
17918;DHT22;9084;50.956;3.106;2023-06-10T07:14:23;23.40;90.50
17918;DHT22;9084;50.956;3.106;2023-06-10T07:16:51;23.40;90.40
17918;DHT22;9084;50.956;3.106;2023-06-10T07:19:17;23.50;90.10
17918;DHT22;9084;50.956;3.106;2023-06-10T07:21:42;23.50;90.70
17918;DHT22;9084;50.956;3.106;2023-06-10T07:24:08;23.60;90.60
17918;DHT22;9084;50.956;3.106;2023-06-10T07:26:34;23.70;91.10
17918;DHT22;9084;50.956;3.106;2023-06-10T07:29:04;23.80;90.60
17918;DHT22;9084;50.956;3.106;2023-06-10T07:31:32;23.80;90.90
17918;DHT22;9084;50.956;3.106;2023-06-10T07:34:00;24.00;89.50
17918;DHT22;9084;50.956;3.106;2023-06-10T07:36:25;24.10;88.90
17918;DHT22;9084;50.956;3.106;2023-06-10T07:38:56;24.20;88.80
17918;DHT22;9084;50.956;3.106;2023-06-10T07:41:23;24.30;88.70
17918;DHT22;9084;50.956;3.106;2023-06-10T07:43:50;24.30;88.00
17918;DHT22;9084;50.956;3.106;2023-06-10T07:46:22;24.50;86.20
17918;DHT22;9084;50.956;3.106;2023-06-10T07:48:53;24.50;85.80
17918;DHT22;9084;50.956;3.106;2023-06-10T07:51:20;24.60;85.40
17918;DHT22;9084;50.956;3.106;2023-06-10T07:53:46;24.90;85.20
17918;DHT22;9084;50.956;3.106;2023-06-10T07:56:12;24.60;84.90
17918;DHT22;9084;50.956;3.106;2023-06-10T07:58:40;24.70;85.80
17918;DHT22;9084;50.956;3.106;2023-06-10T08:01:08;24.70;84.90
17918;DHT22;9084;50.956;3.106;2023-06-10T08:03:36;24.70;84.60
17918;DHT22;9084;50.956;3.106;2023-06-10T08:06:02;24.80;84.80
17918;DHT22;9084;50.956;3.106;2023-06-10T08:08:27;24.90;84.80
17918;DHT22;9084;50.956;3.106;2023-06-10T08:10:56;25.00;83.30
17918;DHT22;9084;50.956;3.106;2023-06-10T08:13:21;25.10;82.80
17918;DHT22;9084;50.956;3.106;2023-06-10T08:15:47;25.10;82.10
17918;DHT22;9084;50.956;3.106;2023-06-10T08:18:15;25.20;82.80
17918;DHT22;9084;50.956;3.106;2023-06-10T08:20:46;25.20;81.90
17918;DHT22;9084;50.956;3.106;2023-06-10T08:23:11;25.30;81.70
17918;DHT22;9084;50.956;3.106;2023-06-10T08:25:41;25.30;80.60
17918;DHT22;9084;50.956;3.106;2023-06-10T08:28:07;25.40;81.00
17918;DHT22;9084;50.956;3.106;2023-06-10T08:30:37;25.50;80.50
17918;DHT22;9084;50.956;3.106;2023-06-10T08:33:05;25.60;79.60
17918;DHT22;9084;50.956;3.106;2023-06-10T08:35:33;25.60;79.80
17918;DHT22;9084;50.956;3.106;2023-06-10T08:37:59;25.70;79.40
17918;DHT22;9084;50.956;3.106;2023-06-10T08:40:25;25.80;79.30
17918;DHT22;9084;50.956;3.106;2023-06-10T08:45:28;25.90;77.80
17918;DHT22;9084;50.956;3.106;2023-06-10T08:47:57;26.00;78.10
17918;DHT22;9084;50.956;3.106;2023-06-10T08:50:23;26.10;77.00
17918;DHT22;9084;50.956;3.106;2023-06-10T08:52:52;26.20;76.50
17918;DHT22;9084;50.956;3.106;2023-06-10T08:55:32;26.20;76.60
17918;DHT22;9084;50.956;3.106;2023-06-10T08:58:01;26.30;76.60
17918;DHT22;9084;50.956;3.106;2023-06-10T09:00:29;26.40;77.70
17918;DHT22;9084;50.956;3.106;2023-06-10T09:02:58;26.40;76.10
17918;DHT22;9084;50.956;3.106;2023-06-10T09:05:25;26.50;75.90
17918;DHT22;9084;50.956;3.106;2023-06-10T09:07:52;26.50;76.10
17918;DHT22;9084;50.956;3.106;2023-06-10T09:10:21;26.70;74.40
17918;DHT22;9084;50.956;3.106;2023-06-10T09:12:46;26.70;74.70
17918;DHT22;9084;50.956;3.106;2023-06-10T09:15:12;26.80;75.10
17918;DHT22;9084;50.956;3.106;2023-06-10T09:17:40;26.80;74.60
17918;DHT22;9084;50.956;3.106;2023-06-10T09:20:09;26.90;74.00
17918;DHT22;9084;50.956;3.106;2023-06-10T09:22:38;26.90;73.50
17918;DHT22;9084;50.956;3.106;2023-06-10T09:25:04;27.00;72.00
17918;DHT22;9084;50.956;3.106;2023-06-10T09:27:31;27.00;71.50
17918;DHT22;9084;50.956;3.106;2023-06-10T09:30:00;27.10;73.20
17918;DHT22;9084;50.956;3.106;2023-06-10T09:32:28;27.10;73.20
17918;DHT22;9084;50.956;3.106;2023-06-10T09:34:54;27.20;72.10
17918;DHT22;9084;50.956;3.106;2023-06-10T09:37:21;27.30;71.70
17918;DHT22;9084;50.956;3.106;2023-06-10T09:40:06;27.50;71.00
17918;DHT22;9084;50.956;3.106;2023-06-10T09:42:38;27.50;70.40
17918;DHT22;9084;50.956;3.106;2023-06-10T09:45:05;27.60;69.50
17918;DHT22;9084;50.956;3.106;2023-06-10T09:47:34;27.70;69.90
17918;DHT22;9084;50.956;3.106;2023-06-10T09:50:00;27.80;69.90
17918;DHT22;9084;50.956;3.106;2023-06-10T09:52:30;27.80;68.60
17918;DHT22;9084;50.956;3.106;2023-06-10T09:55:01;27.90;68.30
17918;DHT22;9084;50.956;3.106;2023-06-10T09:57:33;27.90;69.00
17918;DHT22;9084;50.956;3.106;2023-06-10T09:59:59;28.00;68.30
17918;DHT22;9084;50.956;3.106;2023-06-10T10:02:25;28.00;67.60
17918;DHT22;9084;50.956;3.106;2023-06-10T10:04:50;28.10;67.30
17918;DHT22;9084;50.956;3.106;2023-06-10T10:07:16;28.20;67.10
17918;DHT22;9084;50.956;3.106;2023-06-10T10:09:42;28.20;68.00
17918;DHT22;9084;50.956;3.106;2023-06-10T10:12:15;28.20;66.80
17918;DHT22;9084;50.956;3.106;2023-06-10T10:14:46;28.30;65.80
17918;DHT22;9084;50.956;3.106;2023-06-10T10:17:15;28.40;65.50
17918;DHT22;9084;50.956;3.106;2023-06-10T10:19:56;28.40;66.30
17918;DHT22;9084;50.956;3.106;2023-06-10T10:22:28;28.40;66.30
17918;DHT22;9084;50.956;3.106;2023-06-10T10:25:02;28.50;65.10
17918;DHT22;9084;50.956;3.106;2023-06-10T10:27:36;28.60;62.70
17918;DHT22;9084;50.956;3.106;2023-06-10T10:30:10;28.50;62.80
17918;DHT22;9084;50.956;3.106;2023-06-10T10:32:43;28.50;63.10
17918;DHT22;9084;50.956;3.106;2023-06-10T10:35:21;28.50;62.50
17918;DHT22;9084;50.956;3.106;2023-06-10T10:37:53;28.60;62.20
17918;DHT22;9084;50.956;3.106;2023-06-10T10:40:23;28.60;61.80
17918;DHT22;9084;50.956;3.106;2023-06-10T10:42:50;28.70;60.80
17918;DHT22;9084;50.956;3.106;2023-06-10T10:45:16;28.80;60.70
17918;DHT22;9084;50.956;3.106;2023-06-10T10:47:43;28.80;59.90
17918;DHT22;9084;50.956;3.106;2023-06-10T10:50:17;28.90;57.10
17918;DHT22;9084;50.956;3.106;2023-06-10T10:52:52;28.90;58.00
17918;DHT22;9084;50.956;3.106;2023-06-10T10:55:22;29.00;57.70
17918;DHT22;9084;50.956;3.106;2023-06-10T10:58:11;29.00;58.80
17918;DHT22;9084;50.956;3.106;2023-06-10T11:00:44;29.00;56.30
17918;DHT22;9084;50.956;3.106;2023-06-10T11:03:14;29.10;56.10
17918;DHT22;9084;50.956;3.106;2023-06-10T11:05:43;29.00;55.60
17918;DHT22;9084;50.956;3.106;2023-06-10T11:08:13;29.00;56.40
17918;DHT22;9084;50.956;3.106;2023-06-10T11:10:41;29.10;54.80
17918;DHT22;9084;50.956;3.106;2023-06-10T11:13:13;29.20;54.60
17918;DHT22;9084;50.956;3.106;2023-06-10T11:15:47;29.30;56.00
17918;DHT22;9084;50.956;3.106;2023-06-10T11:18:29;29.40;55.30
17918;DHT22;9084;50.956;3.106;2023-06-10T11:21:02;29.50;54.50
17918;DHT22;9084;50.956;3.106;2023-06-10T11:34:03;29.60;55.80
17918;DHT22;9084;50.956;3.106;2023-06-10T11:36:31;29.60;55.10
17918;DHT22;9084;50.956;3.106;2023-06-10T11:38:58;29.70;55.20
17918;DHT22;9084;50.956;3.106;2023-06-10T11:41:25;29.80;54.50
17918;DHT22;9084;50.956;3.106;2023-06-10T11:43:55;29.60;53.60
17918;DHT22;9084;50.956;3.106;2023-06-10T11:46:29;29.60;53.70
17918;DHT22;9084;50.956;3.106;2023-06-10T11:48:56;29.60;53.70
17918;DHT22;9084;50.956;3.106;2023-06-10T11:51:25;29.70;52.90
17918;DHT22;9084;50.956;3.106;2023-06-10T11:53:51;29.70;52.90
17918;DHT22;9084;50.956;3.106;2023-06-10T11:56:28;29.70;53.60
17918;DHT22;9084;50.956;3.106;2023-06-10T11:59:03;29.80;50.70
17918;DHT22;9084;50.956;3.106;2023-06-10T12:01:31;29.90;49.40
17918;DHT22;9084;50.956;3.106;2023-06-10T12:03:58;29.80;50.40
17918;DHT22;9084;50.956;3.106;2023-06-10T12:06:24;29.80;50.00
17918;DHT22;9084;50.956;3.106;2023-06-10T12:08:50;29.80;50.00
17918;DHT22;9084;50.956;3.106;2023-06-10T12:11:15;29.80;48.80
17918;DHT22;9084;50.956;3.106;2023-06-10T12:13:48;29.70;48.20
17918;DHT22;9084;50.956;3.106;2023-06-10T12:16:15;29.70;48.90
17918;DHT22;9084;50.956;3.106;2023-06-10T12:18:46;29.80;49.20
17918;DHT22;9084;50.956;3.106;2023-06-10T12:21:19;29.80;48.60
17918;DHT22;9084;50.956;3.106;2023-06-10T12:24:13;29.80;48.40
17918;DHT22;9084;50.956;3.106;2023-06-10T12:26:44;29.70;49.40
17918;DHT22;9084;50.956;3.106;2023-06-10T12:29:24;29.60;49.40
17918;DHT22;9084;50.956;3.106;2023-06-10T12:32:02;29.70;48.70
17918;DHT22;9084;50.956;3.106;2023-06-10T12:34:37;29.90;50.30
17918;DHT22;9084;50.956;3.106;2023-06-10T12:37:05;30.00;49.90
17918;DHT22;9084;50.956;3.106;2023-06-10T12:39:33;30.20;49.00
17918;DHT22;9084;50.956;3.106;2023-06-10T12:42:01;30.30;49.60
17918;DHT22;9084;50.956;3.106;2023-06-10T12:44:34;30.40;48.40
17918;DHT22;9084;50.956;3.106;2023-06-10T12:47:00;30.60;47.40
17918;DHT22;9084;50.956;3.106;2023-06-10T12:49:27;30.60;46.60
17918;DHT22;9084;50.956;3.106;2023-06-10T12:51:53;30.70;46.60
17918;DHT22;9084;50.956;3.106;2023-06-10T12:54:19;30.80;47.20
17918;DHT22;9084;50.956;3.106;2023-06-10T12:56:44;30.80;45.90
17918;DHT22;9084;50.956;3.106;2023-06-10T12:59:10;30.90;45.70
17918;DHT22;9084;50.956;3.106;2023-06-10T13:01:38;30.90;45.70
17918;DHT22;9084;50.956;3.106;2023-06-10T13:04:05;31.00;47.00
17918;DHT22;9084;50.956;3.106;2023-06-10T13:06:35;31.10;45.40
17918;DHT22;9084;50.956;3.106;2023-06-10T13:09:04;31.20;46.00
17918;DHT22;9084;50.956;3.106;2023-06-10T13:11:32;31.40;46.70
17918;DHT22;9084;50.956;3.106;2023-06-10T13:13:58;31.50;46.20
17918;DHT22;9084;50.956;3.106;2023-06-10T13:16:24;31.60;45.80
17918;DHT22;9084;50.956;3.106;2023-06-10T13:18:49;31.80;44.70
17918;DHT22;9084;50.956;3.106;2023-06-10T13:21:15;31.90;45.30
17918;DHT22;9084;50.956;3.106;2023-06-10T13:23:44;32.00;45.10
17918;DHT22;9084;50.956;3.106;2023-06-10T13:26:15;31.90;44.70
17918;DHT22;9084;50.956;3.106;2023-06-10T13:28:46;31.50;43.10
17918;DHT22;9084;50.956;3.106;2023-06-10T13:31:14;31.20;44.60
17918;DHT22;9084;50.956;3.106;2023-06-10T13:33:39;31.00;46.10
17918;DHT22;9084;50.956;3.106;2023-06-10T13:36:05;30.90;45.90
17918;DHT22;9084;50.956;3.106;2023-06-10T13:38:31;31.00;46.40
17918;DHT22;9084;50.956;3.106;2023-06-10T13:40:57;31.10;45.20
17918;DHT22;9084;50.956;3.106;2023-06-10T13:43:23;31.20;43.80
17918;DHT22;9084;50.956;3.106;2023-06-10T13:45:48;31.20;44.50
17918;DHT22;9084;50.956;3.106;2023-06-10T13:48:14;31.20;43.40
17918;DHT22;9084;50.956;3.106;2023-06-10T13:50:42;31.10;44.60
17918;DHT22;9084;50.956;3.106;2023-06-10T13:53:11;30.90;45.00
17918;DHT22;9084;50.956;3.106;2023-06-10T13:55:37;30.80;44.70
17918;DHT22;9084;50.956;3.106;2023-06-10T13:58:02;30.60;44.90
17918;DHT22;9084;50.956;3.106;2023-06-10T14:00:28;30.50;45.30
17918;DHT22;9084;50.956;3.106;2023-06-10T14:02:54;30.30;44.80
17918;DHT22;9084;50.956;3.106;2023-06-10T14:05:19;30.20;46.10
17918;DHT22;9084;50.956;3.106;2023-06-10T14:07:45;30.10;46.60
17918;DHT22;9084;50.956;3.106;2023-06-10T14:10:11;30.10;46.60
17918;DHT22;9084;50.956;3.106;2023-06-10T14:12:36;30.10;45.80
17918;DHT22;9084;50.956;3.106;2023-06-10T14:15:02;30.10;45.80
17918;DHT22;9084;50.956;3.106;2023-06-10T14:17:28;30.10;45.30
17918;DHT22;9084;50.956;3.106;2023-06-10T14:19:54;30.30;45.60
17918;DHT22;9084;50.956;3.106;2023-06-10T14:22:21;30.60;45.40
17918;DHT22;9084;50.956;3.106;2023-06-10T14:24:49;30.90;44.30
17918;DHT22;9084;50.956;3.106;2023-06-10T14:27:15;31.20;45.20
17918;DHT22;9084;50.956;3.106;2023-06-10T14:29:40;31.50;44.00
17918;DHT22;9084;50.956;3.106;2023-06-10T14:32:06;31.70;43.60
17918;DHT22;9084;50.956;3.106;2023-06-10T14:34:35;31.80;42.80
17918;DHT22;9084;50.956;3.106;2023-06-10T14:37:00;31.70;42.60
17918;DHT22;9084;50.956;3.106;2023-06-10T14:39:28;31.60;42.30
17918;DHT22;9084;50.956;3.106;2023-06-10T14:41:54;31.60;42.60
17918;DHT22;9084;50.956;3.106;2023-06-10T14:44:22;31.70;42.90
17918;DHT22;9084;50.956;3.106;2023-06-10T14:46:50;31.90;42.70
17918;DHT22;9084;50.956;3.106;2023-06-10T14:49:16;32.10;41.90
17918;DHT22;9084;50.956;3.106;2023-06-10T14:51:42;32.10;42.20
17918;DHT22;9084;50.956;3.106;2023-06-10T14:54:07;32.20;41.00
17918;DHT22;9084;50.956;3.106;2023-06-10T14:56:33;32.40;41.00
17918;DHT22;9084;50.956;3.106;2023-06-10T14:58:58;32.60;41.00
17918;DHT22;9084;50.956;3.106;2023-06-10T15:01:24;32.50;41.90
17918;DHT22;9084;50.956;3.106;2023-06-10T15:03:50;32.60;41.00
17918;DHT22;9084;50.956;3.106;2023-06-10T15:06:18;32.50;40.60
17918;DHT22;9084;50.956;3.106;2023-06-10T15:08:48;32.60;40.10
17918;DHT22;9084;50.956;3.106;2023-06-10T15:11:17;32.60;40.00
17918;DHT22;9084;50.956;3.106;2023-06-10T15:13:45;32.50;40.80
17918;DHT22;9084;50.956;3.106;2023-06-10T15:16:15;32.30;41.30
17918;DHT22;9084;50.956;3.106;2023-06-10T15:18:41;32.20;40.70
17918;DHT22;9084;50.956;3.106;2023-06-10T15:21:09;31.90;40.60
17918;DHT22;9084;50.956;3.106;2023-06-10T15:23:35;31.60;41.70
17918;DHT22;9084;50.956;3.106;2023-06-10T15:26:03;31.50;42.20
17918;DHT22;9084;50.956;3.106;2023-06-10T15:28:29;31.30;41.60
17918;DHT22;9084;50.956;3.106;2023-06-10T15:30:54;31.00;42.40
17918;DHT22;9084;50.956;3.106;2023-06-10T15:33:22;31.00;43.50
17918;DHT22;9084;50.956;3.106;2023-06-10T15:35:51;31.10;43.60
17918;DHT22;9084;50.956;3.106;2023-06-10T15:38:18;31.40;42.10
17918;DHT22;9084;50.956;3.106;2023-06-10T15:40:43;31.60;42.00
17918;DHT22;9084;50.956;3.106;2023-06-10T15:43:09;31.70;43.00
17918;DHT22;9084;50.956;3.106;2023-06-10T15:45:35;31.90;43.40
17918;DHT22;9084;50.956;3.106;2023-06-10T15:48:03;31.90;42.70
17918;DHT22;9084;50.956;3.106;2023-06-10T15:50:29;31.90;42.70
17918;DHT22;9084;50.956;3.106;2023-06-10T15:53:01;31.70;42.50
17918;DHT22;9084;50.956;3.106;2023-06-10T15:55:27;31.60;42.20
17918;DHT22;9084;50.956;3.106;2023-06-10T15:57:54;31.90;43.40
17918;DHT22;9084;50.956;3.106;2023-06-10T16:00:20;32.10;43.10
17918;DHT22;9084;50.956;3.106;2023-06-10T16:02:48;32.30;42.10
17918;DHT22;9084;50.956;3.106;2023-06-10T16:05:14;32.50;41.80
17918;DHT22;9084;50.956;3.106;2023-06-10T16:07:42;32.50;41.30